createdAt,value
2022-08-10T00:01:52.359Z,3.67
2022-08-10T00:04:23.941Z,3.63
2022-08-10T00:06:55.239Z,3.90
2022-08-10T00:09:23.154Z,3.60
2022-08-10T00:11:49.942Z,4.10
2022-08-10T00:14:16.741Z,3.70
2022-08-10T00:16:43.417Z,3.57
2022-08-10T00:19:10.200Z,3.30
2022-08-10T00:21:37.623Z,3.57
2022-08-10T00:24:04.782Z,3.63
2022-08-10T00:27:58.542Z,3.93
2022-08-10T00:29:18.337Z,3.50
2022-08-10T00:31:58.114Z,4.23
2022-08-10T00:34:30.857Z,4.37
2022-08-10T00:36:58.596Z,3.90
2022-08-10T00:39:26.020Z,4.20
2022-08-10T00:42:02.358Z,4.50
2022-08-10T00:44:44.999Z,4.80
2022-08-10T00:47:21.312Z,3.97
2022-08-10T00:49:59.785Z,4.60
2022-08-10T00:52:27.550Z,4.07
2022-08-10T00:54:55.563Z,4.40
2022-08-10T00:57:22.702Z,4.27
2022-08-10T00:59:58.100Z,4.27
2022-08-10T01:02:31.872Z,4.33
2022-08-10T01:05:02.782Z,5.27
2022-08-10T01:07:53.029Z,4.70
2022-08-10T01:10:41.239Z,4.77
2022-08-10T01:13:35.873Z,4.47
2022-08-10T01:16:28.515Z,4.67
2022-08-10T01:19:15.090Z,4.17
2022-08-10T01:22:07.125Z,4.47
2022-08-10T01:24:40.467Z,4.67
2022-08-10T01:27:28.679Z,4.03
2022-08-10T01:30:11.175Z,4.60
2022-08-10T01:32:43.517Z,4.47
2022-08-10T01:35:15.194Z,4.23
2022-08-10T01:37:52.551Z,4.67
2022-08-10T01:40:24.983Z,4.93
2022-08-10T01:42:54.314Z,5.50
2022-08-10T01:45:22.458Z,4.50
2022-08-10T01:48:16.633Z,4.53
2022-08-10T01:50:59.573Z,5.23
2022-08-10T01:53:41.843Z,4.77
2022-08-10T01:56:13.263Z,4.73
2022-08-10T01:58:42.146Z,5.10
2022-08-10T02:01:17.110Z,5.40
2022-08-10T02:04:04.184Z,5.00
2022-08-10T02:06:34.199Z,5.73
2022-08-10T02:09:06.402Z,5.30
2022-08-10T02:12:06.674Z,5.37
2022-08-10T02:14:33.186Z,5.20
2022-08-10T02:17:03.623Z,5.00
2022-08-10T02:19:33.241Z,4.93
2022-08-10T02:22:15.430Z,5.70
2022-08-10T02:24:49.106Z,5.90
2022-08-10T02:27:16.806Z,6.13
2022-08-10T02:29:49.185Z,5.13
2022-08-10T02:32:24.519Z,6.20
2022-08-10T02:35:06.298Z,5.40
2022-08-10T02:37:37.398Z,5.90
2022-08-10T02:40:04.841Z,5.97
2022-08-10T02:45:19.340Z,6.10
2022-08-10T02:45:44.083Z,6.00
2022-08-10T02:48:19.068Z,6.40
2022-08-10T02:50:52.367Z,5.57
2022-08-10T02:53:54.447Z,6.07
2022-08-10T02:56:26.178Z,5.70
2022-08-10T02:58:52.835Z,5.63
2022-08-10T03:01:22.394Z,6.00
2022-08-10T03:03:57.431Z,6.13
2022-08-10T03:06:30.355Z,6.43
2022-08-10T03:08:59.046Z,5.73
2022-08-10T03:12:34.926Z,7.07
2022-08-10T03:14:17.219Z,6.97
2022-08-10T03:16:45.825Z,7.07
2022-08-10T03:20:04.624Z,6.70
2022-08-10T03:22:02.899Z,6.67
2022-08-10T03:24:33.444Z,6.70
2022-08-10T03:27:01.570Z,7.37
2022-08-10T03:29:29.981Z,6.97
2022-08-10T03:32:17.440Z,7.30
2022-08-10T03:34:44.489Z,7.00
2022-08-10T03:37:11.269Z,6.17
2022-08-10T03:39:38.163Z,7.30
2022-08-10T03:42:06.929Z,7.07
2022-08-10T03:44:35.425Z,7.50
2022-08-10T03:47:04.528Z,7.30
2022-08-10T03:49:43.941Z,8.33
2022-08-10T03:52:11.257Z,8.23
2022-08-10T03:54:38.399Z,6.80
2022-08-10T03:57:05.219Z,7.23
2022-08-10T03:59:32.595Z,6.90
2022-08-10T04:02:45.593Z,7.30
2022-08-10T04:04:47.583Z,7.10
2022-08-10T04:07:15.430Z,6.70
2022-08-10T04:09:54.016Z,6.87
2022-08-10T04:12:22.694Z,6.70
2022-08-10T04:14:52.425Z,7.50
2022-08-10T04:17:56.324Z,6.93
2022-08-10T04:20:34.886Z,6.93
2022-08-10T04:23:06.373Z,6.93
2022-08-10T04:25:34.037Z,7.70
2022-08-10T04:28:01.386Z,7.60
2022-08-10T04:30:31.762Z,7.00
2022-08-10T04:33:00.312Z,6.73
2022-08-10T04:35:28.946Z,7.57
2022-08-10T04:37:57.555Z,6.93
2022-08-10T04:40:28.569Z,7.17
2022-08-10T04:43:11.882Z,7.50
2022-08-10T04:45:48.866Z,7.90
2022-08-10T04:48:42.271Z,6.87
2022-08-10T04:51:17.147Z,6.83
2022-08-10T04:54:05.771Z,7.07
2022-08-10T04:56:33.569Z,7.13
2022-08-10T04:59:00.964Z,7.40
2022-08-10T05:02:12.087Z,7.70
2022-08-10T05:04:35.883Z,7.77
2022-08-10T05:07:01.787Z,6.60
2022-08-10T05:09:28.522Z,7.87
2022-08-10T05:11:55.174Z,7.57
2022-08-10T05:14:21.799Z,7.40
2022-08-10T05:16:48.583Z,7.70
2022-08-10T05:19:15.283Z,7.00
2022-08-10T05:22:03.144Z,7.30
2022-08-10T05:24:29.031Z,7.03
2022-08-10T05:27:09.250Z,7.07
2022-08-10T05:29:37.973Z,7.13
2022-08-10T05:32:05.121Z,7.40
2022-08-10T05:34:31.919Z,7.00
2022-08-10T05:37:00.032Z,6.97
2022-08-10T05:39:30.462Z,6.83
2022-08-10T05:42:01.751Z,6.63
2022-08-10T05:44:29.431Z,6.80
2022-08-10T05:46:56.309Z,6.93
2022-08-10T05:49:23.068Z,6.87
2022-08-10T05:51:49.887Z,7.07
2022-08-10T05:54:16.813Z,6.47
2022-08-10T05:56:55.641Z,6.07
2022-08-10T06:00:11.369Z,6.50
2022-08-10T06:02:40.296Z,6.17
2022-08-10T06:05:13.394Z,6.40
2022-08-10T06:07:48.273Z,7.00
2022-08-10T06:10:31.345Z,5.97
2022-08-10T06:13:26.800Z,5.70
2022-08-10T06:16:00.651Z,6.37
2022-08-10T06:18:27.767Z,5.80
2022-08-10T06:20:55.372Z,5.53
2022-08-10T06:23:25.422Z,5.00
2022-08-10T06:26:08.587Z,5.67
2022-08-10T06:29:02.332Z,4.53
2022-08-10T06:31:46.834Z,5.33
2022-08-10T06:34:20.887Z,5.07
2022-08-10T06:36:48.926Z,4.50
2022-08-10T06:39:32.878Z,4.40
2022-08-10T06:42:16.310Z,4.37
2022-08-10T06:45:04.900Z,4.37
2022-08-10T06:47:39.194Z,4.13
2022-08-10T06:50:44.473Z,4.40
2022-08-10T06:53:53.547Z,4.00
2022-08-10T06:56:19.590Z,4.20
2022-08-10T06:59:22.073Z,3.50
2022-08-10T07:02:02.240Z,3.83
2022-08-10T07:04:44.177Z,3.77
2022-08-10T07:07:17.365Z,3.50
2022-08-10T07:09:45.658Z,3.20
2022-08-10T07:12:14.695Z,2.90
2022-08-10T07:14:44.915Z,4.53
2022-08-10T07:17:16.917Z,3.00
2022-08-10T07:19:49.880Z,2.90
2022-08-10T07:23:11.067Z,3.30
2022-08-10T07:25:12.363Z,3.00
2022-08-10T07:28:00.197Z,3.07
2022-08-10T07:30:31.425Z,3.00
2022-08-10T07:33:00.145Z,3.23
2022-08-10T07:35:36.137Z,2.83
2022-08-10T07:38:18.257Z,3.27
2022-08-10T07:40:48.470Z,2.93
2022-08-10T07:43:17.574Z,3.73
2022-08-10T07:45:46.414Z,2.57
2022-08-10T07:48:43.828Z,2.40
2022-08-10T07:51:11.326Z,2.93
2022-08-10T07:53:44.810Z,2.83
2022-08-10T07:56:31.933Z,2.90
2022-08-10T07:59:08.097Z,2.70
2022-08-10T08:01:39.051Z,2.53
2022-08-10T08:04:11.235Z,2.80
2022-08-10T08:06:41.332Z,2.50
2022-08-10T08:09:08.935Z,2.50
2022-08-10T08:11:37.343Z,3.17
2022-08-10T08:14:07.392Z,2.70
2022-08-10T08:16:36.320Z,3.20
2022-08-10T08:19:27.109Z,2.30
2022-08-10T08:24:10.981Z,2.60
2022-08-10T08:24:42.277Z,2.93
2022-08-10T08:27:11.001Z,2.50
2022-08-10T08:29:41.922Z,3.20
2022-08-10T08:32:09.614Z,2.40
2022-08-10T08:34:42.596Z,2.63
2022-08-10T08:37:10.841Z,2.93
2022-08-10T08:39:38.259Z,3.30
2022-08-10T08:42:10.758Z,2.90
2022-08-10T08:45:04.828Z,2.90
2022-08-10T08:48:04.720Z,2.70
2022-08-10T08:52:06.103Z,2.53
2022-08-10T08:54:32.970Z,2.60
2022-08-10T08:57:45.665Z,2.73
2022-08-10T09:00:32.893Z,2.80
2022-08-10T09:03:47.148Z,2.93
2022-08-10T09:06:32.042Z,2.83
2022-08-10T09:09:26.455Z,2.77
2022-08-10T09:12:17.541Z,2.93
2022-08-10T09:14:50.283Z,2.93
2022-08-10T09:17:40.019Z,2.97
2022-08-10T09:20:38.424Z,3.50
2022-08-10T09:23:20.412Z,2.90
2022-08-10T09:26:12.215Z,2.70
2022-08-10T09:28:42.464Z,2.70
2022-08-10T09:31:21.936Z,3.30
2022-08-10T09:36:20.170Z,3.20
2022-08-10T09:37:14.059Z,3.03
2022-08-10T09:40:56.692Z,2.60
2022-08-10T09:43:24.985Z,3.20
2022-08-10T09:46:35.338Z,3.00
2022-08-10T09:49:52.768Z,3.20
2022-08-10T09:52:31.888Z,3.10
2022-08-10T09:56:17.109Z,3.03
2022-08-10T09:58:41.966Z,3.10
2022-08-10T10:02:00.308Z,2.60
2022-08-10T10:04:48.790Z,3.43
2022-08-10T10:07:24.286Z,2.87
2022-08-10T10:10:10.211Z,3.00
2022-08-10T10:13:01.278Z,3.10
2022-08-10T10:15:46.211Z,2.67
2022-08-10T10:18:27.212Z,2.77
2022-08-10T10:21:05.860Z,3.27
2022-08-10T10:23:38.597Z,3.40
2022-08-10T10:26:19.573Z,2.67
2022-08-10T10:29:57.362Z,3.10
2022-08-10T10:32:17.398Z,3.43
2022-08-10T10:35:03.598Z,2.90
2022-08-10T10:38:00.233Z,2.93
2022-08-10T10:40:20.852Z,2.90
2022-08-10T10:43:05.123Z,3.13
2022-08-10T10:45:50.600Z,3.20
2022-08-10T10:48:42.250Z,2.70
2022-08-10T10:51:24.133Z,2.93
2022-08-10T10:54:19.212Z,2.57
2022-08-10T10:56:58.135Z,2.90
2022-08-10T11:00:02.382Z,2.67
2022-08-10T11:02:41.204Z,2.53
2022-08-10T11:05:18.971Z,2.90
2022-08-10T11:08:01.507Z,2.25
2022-08-10T11:10:35.845Z,2.78
2022-08-10T11:14:25.482Z,2.20
2022-08-10T11:16:28.194Z,2.38
2022-08-10T11:19:13.561Z,2.42
2022-08-10T11:22:17.867Z,2.88
2022-08-10T11:25:08.747Z,2.30
2022-08-10T11:27:49.543Z,2.70
2022-08-10T11:30:58.071Z,2.33
2022-08-10T11:34:11.540Z,2.88
2022-08-10T11:36:43.210Z,2.67
2022-08-10T11:39:25.262Z,2.55
2022-08-10T11:42:35.736Z,2.42
2022-08-10T11:45:13.102Z,2.35
2022-08-10T11:47:48.024Z,2.58
2022-08-10T11:50:28.314Z,2.45
2022-08-10T11:53:00.862Z,2.78
2022-08-10T11:55:33.059Z,2.50
2022-08-10T11:58:27.684Z,2.88
2022-08-10T12:01:02.486Z,2.47
2022-08-10T12:03:34.769Z,2.53
2022-08-10T12:06:04.784Z,2.20
2022-08-10T12:10:06.365Z,2.67
2022-08-10T12:11:27.958Z,2.58
2022-08-10T12:14:22.507Z,2.20
2022-08-10T12:17:00.557Z,2.50
2022-08-10T12:19:59.391Z,2.40
2022-08-10T12:22:36.277Z,2.25
2022-08-10T12:25:09.086Z,2.60
2022-08-10T12:27:56.286Z,2.30
2022-08-10T12:30:33.591Z,2.42
2022-08-10T12:34:02.428Z,2.10
2022-08-10T12:36:36.403Z,2.30
2022-08-10T12:39:15.301Z,2.30
2022-08-10T12:42:10.223Z,2.03
2022-08-10T12:44:44.623Z,1.90
2022-08-10T12:47:36.792Z,2.00
2022-08-10T12:50:31.287Z,2.15
2022-08-10T12:53:36.401Z,1.98
2022-08-10T12:56:05.069Z,2.10
2022-08-10T12:58:59.159Z,1.88
2022-08-10T13:01:27.922Z,2.00
2022-08-10T13:04:22.592Z,2.38
2022-08-10T13:06:51.960Z,2.03
2022-08-10T13:09:23.458Z,1.92
2022-08-10T13:12:37.940Z,1.73
2022-08-10T13:15:49.671Z,1.90
2022-08-10T13:18:19.048Z,2.00
2022-08-10T13:20:54.807Z,1.80
2022-08-10T13:23:26.727Z,1.80
2022-08-10T13:25:56.619Z,1.73
2022-08-10T13:28:39.659Z,2.20
2022-08-10T13:31:11.691Z,2.20
2022-08-10T13:34:39.593Z,2.17
2022-08-10T13:36:40.142Z,1.80
2022-08-10T13:39:08.281Z,2.38
2022-08-10T13:41:44.357Z,2.20
2022-08-10T13:44:15.517Z,2.17
2022-08-10T13:46:49.850Z,2.10
2022-08-10T13:49:18.623Z,2.30
2022-08-10T13:51:54.383Z,1.90
2022-08-10T13:54:38.673Z,2.20
2022-08-10T13:57:06.773Z,2.15
2022-08-10T14:00:33.913Z,2.08
2022-08-10T14:02:36.148Z,2.10
2022-08-10T14:05:05.905Z,2.13
2022-08-10T14:07:33.899Z,1.92
2022-08-10T14:10:07.113Z,1.80
2022-08-10T14:12:42.131Z,2.03
2022-08-10T14:15:13.705Z,2.08
2022-08-10T14:17:44.870Z,1.85
2022-08-10T14:20:17.955Z,1.80
2022-08-10T14:22:47.763Z,1.75
2022-08-10T14:25:15.663Z,1.77
2022-08-10T14:28:03.561Z,2.05
2022-08-10T14:30:32.939Z,2.08
2022-08-10T14:33:04.290Z,1.95
2022-08-10T14:36:20.245Z,2.22
2022-08-10T14:38:31.113Z,2.50
2022-08-10T14:41:01.247Z,2.08
2022-08-10T14:43:39.223Z,1.80
2022-08-10T14:46:11.428Z,1.83
2022-08-10T14:48:46.377Z,1.90
2022-08-10T14:51:17.879Z,1.92
2022-08-10T14:53:53.680Z,1.60
2022-08-10T14:56:32.201Z,1.77
2022-08-10T14:59:07.011Z,1.80
2022-08-10T15:02:00.836Z,1.65
2022-08-10T15:04:28.923Z,1.60
2022-08-10T15:07:21.217Z,1.70
2022-08-10T15:10:00.920Z,1.48
2022-08-10T15:12:38.960Z,1.73
2022-08-10T15:15:10.039Z,1.92
2022-08-10T15:17:41.902Z,1.67
2022-08-10T15:20:38.575Z,1.65
2022-08-10T15:23:30.889Z,1.87
2022-08-10T15:26:10.851Z,2.00
2022-08-10T15:29:24.172Z,1.93
2022-08-10T15:31:34.098Z,1.40
2022-08-10T15:34:28.707Z,1.80
2022-08-10T15:37:40.133Z,1.90
2022-08-10T15:40:21.509Z,1.60
2022-08-10T15:43:05.534Z,1.67
2022-08-10T15:46:16.328Z,1.63
2022-08-10T15:48:44.372Z,1.83
2022-08-10T15:51:33.737Z,1.70
2022-08-10T15:54:17.461Z,1.80
2022-08-10T15:57:08.066Z,1.50
2022-08-10T15:59:47.146Z,1.47
2022-08-10T16:02:24.969Z,1.83
2022-08-10T16:05:06.481Z,1.83
2022-08-10T16:08:00.960Z,1.70
2022-08-10T16:10:36.657Z,1.80
2022-08-10T16:13:50.838Z,2.40
2022-08-10T16:16:02.850Z,1.80
2022-08-10T16:18:34.651Z,1.73
2022-08-10T16:21:05.421Z,2.40
2022-08-10T16:23:34.965Z,1.77
2022-08-10T16:26:14.809Z,1.80
2022-08-10T16:29:10.906Z,2.10
2022-08-10T16:31:42.495Z,1.80
2022-08-10T16:34:15.808Z,2.07
2022-08-10T16:37:04.967Z,2.07
2022-08-10T16:39:58.916Z,1.80
2022-08-10T16:42:32.366Z,2.20
2022-08-10T16:45:05.401Z,1.73
2022-08-10T16:47:36.265Z,1.57
2022-08-10T16:50:07.391Z,1.90
2022-08-10T16:52:35.944Z,1.70
2022-08-10T16:55:23.560Z,1.90
2022-08-10T16:58:04.793Z,1.80
2022-08-10T17:00:32.651Z,2.13
2022-08-10T17:04:04.708Z,1.90
2022-08-10T17:06:07.363Z,1.70
2022-08-10T17:08:48.104Z,1.90
2022-08-10T17:11:18.501Z,1.87
2022-08-10T17:13:45.861Z,1.70
2022-08-10T17:16:14.379Z,2.00
2022-08-10T17:18:46.756Z,1.50
2022-08-10T17:21:28.200Z,1.67
2022-08-10T17:24:00.085Z,1.67
2022-08-10T17:26:35.915Z,1.77
2022-08-10T17:29:17.443Z,1.80
2022-08-10T17:32:10.950Z,1.60
2022-08-10T17:34:44.374Z,1.80
2022-08-10T17:37:17.656Z,1.67
2022-08-10T17:39:52.355Z,1.70
2022-08-10T17:42:22.026Z,1.80
2022-08-10T17:44:52.006Z,1.73
2022-08-10T17:47:19.713Z,1.80
2022-08-10T17:49:47.809Z,2.00
2022-08-10T17:52:21.608Z,2.23
2022-08-10T17:54:56.240Z,1.90
2022-08-10T17:57:24.590Z,1.80
2022-08-10T17:59:53.623Z,1.80
2022-08-10T18:02:26.728Z,1.90
2022-08-10T18:04:58.383Z,1.90
2022-08-10T18:07:35.862Z,2.47
2022-08-10T18:10:04.750Z,1.93
2022-08-10T18:12:40.961Z,1.80
2022-08-10T18:15:13.456Z,2.37
2022-08-10T18:17:44.004Z,1.97
2022-08-10T18:20:12.844Z,1.80
2022-08-10T18:22:45.862Z,2.20
2022-08-10T18:25:27.885Z,2.40
2022-08-10T18:28:04.432Z,2.40
2022-08-10T18:30:36.195Z,2.20
2022-08-10T18:33:08.239Z,2.00
2022-08-10T18:35:35.600Z,2.10
2022-08-10T18:38:04.974Z,2.40
2022-08-10T18:40:36.356Z,2.20
2022-08-10T18:44:05.904Z,2.00
2022-08-10T18:45:56.620Z,2.00
2022-08-10T18:48:34.115Z,2.27
2022-08-10T18:51:05.928Z,2.50
2022-08-10T18:53:48.662Z,1.90
2022-08-10T18:56:21.168Z,2.70
2022-08-10T18:59:25.540Z,2.03
2022-08-10T19:02:34.513Z,2.83
2022-08-10T19:05:30.702Z,2.20
2022-08-10T19:08:31.337Z,2.73
2022-08-10T19:11:42.776Z,2.10
2022-08-10T19:14:57.483Z,2.43
2022-08-10T19:18:05.533Z,2.60
2022-08-10T19:20:40.617Z,2.63
2022-08-10T19:23:28.762Z,2.17
2022-08-10T19:26:44.054Z,2.40
2022-08-10T19:30:09.757Z,2.43
2022-08-10T19:33:01.465Z,2.40
2022-08-10T19:36:04.459Z,2.43
2022-08-10T19:39:11.517Z,2.60
2022-08-10T19:41:56.052Z,2.50
2022-08-10T19:44:27.620Z,2.70
2022-08-10T19:47:02.508Z,2.53
2022-08-10T19:50:00.725Z,2.87
2022-08-10T19:52:30.768Z,3.10
2022-08-10T19:55:19.515Z,3.07
2022-08-10T19:58:01.418Z,2.70
2022-08-10T20:01:02.122Z,2.50
2022-08-10T20:03:50.176Z,2.77
2022-08-10T20:06:24.823Z,2.80
2022-08-10T20:09:00.656Z,2.80
2022-08-10T20:11:44.086Z,2.60
2022-08-10T20:14:25.334Z,3.00
2022-08-10T20:17:00.202Z,2.80
2022-08-10T20:19:53.059Z,3.10
2022-08-10T20:22:29.303Z,2.80
2022-08-10T20:25:08.054Z,2.80
2022-08-10T20:28:18.255Z,2.73
2022-08-10T20:30:53.175Z,2.70
2022-08-10T20:33:28.997Z,2.53
2022-08-10T20:36:05.275Z,3.23
2022-08-10T20:38:50.668Z,2.90
2022-08-10T20:41:29.375Z,2.80
2022-08-10T20:44:15.016Z,2.70
2022-08-10T20:47:01.378Z,2.63
2022-08-10T20:49:37.809Z,3.17
2022-08-10T20:52:06.192Z,3.43
2022-08-10T20:54:45.756Z,3.73
2022-08-10T20:57:55.383Z,2.80
2022-08-10T21:00:30.246Z,2.90
2022-08-10T21:03:24.966Z,3.13
2022-08-10T21:06:35.957Z,2.93
2022-08-10T21:09:23.360Z,3.30
2022-08-10T21:12:18.618Z,2.93
2022-08-10T21:15:09.634Z,2.90
2022-08-10T21:18:21.465Z,2.83
2022-08-10T21:21:09.726Z,3.30
2022-08-10T21:23:48.162Z,3.03
2022-08-10T21:26:20.953Z,2.70
2022-08-10T21:29:05.535Z,3.03
2022-08-10T21:32:08.221Z,3.30
2022-08-10T21:35:02.339Z,2.97
2022-08-10T21:37:42.174Z,3.00
2022-08-10T21:41:17.090Z,3.10
2022-08-10T21:44:02.566Z,3.47
2022-08-10T21:47:10.033Z,2.60
2022-08-10T21:50:22.996Z,2.73
2022-08-10T21:53:44.880Z,2.70
2022-08-10T21:56:59.517Z,3.53
2022-08-10T21:59:58.121Z,2.90
2022-08-10T22:02:50.310Z,3.17
2022-08-10T22:05:42.862Z,3.73
2022-08-10T22:08:30.833Z,2.97
2022-08-10T22:11:17.811Z,2.93
2022-08-10T22:14:09.420Z,3.30
2022-08-10T22:17:05.065Z,3.10
2022-08-10T22:20:11.670Z,3.13
2022-08-10T22:23:18.777Z,3.40
2022-08-10T22:26:42.706Z,3.30
2022-08-10T22:29:55.164Z,3.17
2022-08-10T22:33:05.389Z,3.00
2022-08-10T22:36:21.495Z,3.10
2022-08-10T22:40:05.791Z,3.27
2022-08-10T22:42:59.407Z,3.10
2022-08-10T22:45:42.940Z,3.57
2022-08-10T22:48:28.911Z,2.97
2022-08-10T22:51:01.372Z,2.80
2022-08-10T22:53:53.429Z,2.70
2022-08-10T22:56:40.408Z,3.17
2022-08-10T22:59:09.390Z,3.20
2022-08-10T23:02:07.494Z,3.03
2022-08-10T23:04:33.971Z,3.37
2022-08-10T23:07:30.109Z,3.10
2022-08-10T23:10:10.386Z,3.33
2022-08-10T23:12:43.693Z,3.13
2022-08-10T23:15:57.178Z,3.27
2022-08-10T23:18:54.883Z,2.90
2022-08-10T23:22:02.818Z,2.93
2022-08-10T23:24:23.035Z,3.10
2022-08-10T23:26:53.299Z,3.20
2022-08-10T23:29:23.310Z,2.90
2022-08-10T23:32:06.847Z,3.40
2022-08-10T23:34:36.307Z,2.80
2022-08-10T23:37:08.125Z,3.30
2022-08-10T23:39:41.055Z,3.00
2022-08-10T23:42:13.011Z,2.77
2022-08-10T23:44:55.476Z,3.10
2022-08-10T23:47:25.371Z,3.30
2022-08-10T23:49:56.279Z,2.73
2022-08-10T23:52:30.068Z,3.00
2022-08-10T23:55:00.695Z,3.33
2022-08-10T23:57:29.401Z,2.90
